Time;durP1;ratioP1;P1;durP2;ratioP2;P2;SDS_P1;SDS_P2;PMS_P1;PMS_P2;Temp;Humidity;BMP_temperature;BMP_pressure;BME280_temperature;BME280_humidity;BME280_pressure;Samples;Min_cycle;Max_cycle;Signal;HPM_P1;HPM_P2
2024/03/12 00:01:08;;;;;;;20.30;13.40;;;;;;;-0.64;65.36;101157.35;87227;268;136696;-75
2024/03/12 00:03:11;;;;;;;21.80;14.70;;;;;;;-0.65;65.49;101156.74;87438;272;25140;-75
2024/03/12 00:05:20;;;;;;;26.90;15.00;;;;;;;-0.67;65.70;101156.34;87275;273;137591;-74
2024/03/12 00:08:09;;;;;;;24.50;16.30;;;;;;;-0.71;65.73;101155.17;85012;300;603244;-74
2024/03/12 00:10:16;;;;;;;27.30;14.90;;;;;;;-0.70;65.86;101155.48;86238;290;25149;-75
2024/03/12 00:12:19;;;;;;;24.90;14.80;;;;;;;-0.69;65.96;101152.94;86189;291;135209;-75
2024/03/12 00:14:20;;;;;;;22.40;14.40;;;;;;;-0.68;66.05;101151.17;87067;273;24008;-75
2024/03/12 00:16:23;;;;;;;22.20;16.50;;;;;;;-0.69;66.03;101144.91;86923;277;135378;-73
2024/03/12 00:18:25;;;;;;;21.00;15.70;;;;;;;-0.68;65.79;101143.13;87159;272;23408;-73
2024/03/12 00:20:33;;;;;;;26.80;16.60;;;;;;;-0.67;65.82;101141.48;87053;279;135742;-73
2024/03/12 00:22:35;;;;;;;30.90;16.20;;;;;;;-0.64;66.09;101140.28;86537;279;965642;-75
2024/03/12 00:24:40;;;;;;;31.30;16.80;;;;;;;-0.63;65.93;101140.35;87277;274;136237;-75
2024/03/12 00:26:42;;;;;;;33.00;18.20;;;;;;;-0.61;65.96;101140.23;87359;268;25124;-74
2024/03/12 00:28:48;;;;;;;34.90;18.60;;;;;;;-0.58;65.84;101144.74;87143;278;137470;-74
2024/03/12 00:30:50;;;;;;;28.20;17.00;;;;;;;-0.55;65.93;101138.85;87375;267;22660;-75
2024/03/12 00:32:54;;;;;;;29.30;16.50;;;;;;;-0.54;65.81;101137.91;87249;270;135862;-75
2024/03/12 00:34:56;;;;;;;32.50;16.10;;;;;;;-0.54;65.89;101133.66;87285;275;24300;-75
2024/03/12 00:37:00;;;;;;;28.00;16.70;;;;;;;-0.55;65.90;101131.69;87163;270;135790;-74
2024/03/12 00:39:02;;;;;;;27.40;13.70;;;;;;;-0.57;65.89;101131.79;87331;270;22571;-75
2024/03/12 00:41:04;;;;;;;24.10;14.00;;;;;;;-0.61;65.98;101137.45;87266;271;136171;-73
2024/03/12 00:43:07;;;;;;;23.30;15.70;;;;;;;-0.66;65.72;101142.27;87220;270;22577;-73
2024/03/12 00:45:11;;;;;;;20.70;15.00;;;;;;;-0.71;66.08;101136.64;87164;277;137590;-74
2024/03/12 00:47:14;;;;;;;43.60;16.10;;;;;;;-0.77;66.39;101137.20;87288;266;25228;-73
2024/03/12 00:49:17;;;;;;;22.80;14.80;;;;;;;-0.80;66.49;101134.27;87213;273;136277;-77
2024/03/12 00:51:19;;;;;;;18.80;12.30;;;;;;;-0.80;66.56;101129.41;87333;273;22571;-74
2024/03/12 00:53:21;;;;;;;25.00;14.30;;;;;;;-0.80;66.66;101129.38;87198;270;136350;-74
2024/03/12 00:55:23;;;;;;;27.60;13.90;;;;;;;-0.80;66.85;101131.81;87305;268;25332;-75
2024/03/12 00:57:27;;;;;;;23.20;14.40;;;;;;;-0.83;67.04;101129.41;87268;264;136111;-76
2024/03/12 00:59:31;;;;;;;23.00;16.00;;;;;;;-0.86;67.11;101126.44;87258;271;25220;-75
2024/03/12 01:01:34;;;;;;;23.50;16.10;;;;;;;-0.87;67.13;101124.59;87368;266;135847;-75
2024/03/12 01:03:36;;;;;;;23.30;16.20;;;;;;;-0.90;67.14;101130.52;87409;270;22579;-75
2024/03/12 01:05:38;;;;;;;25.30;16.80;;;;;;;-0.90;67.20;101122.34;87041;266;136147;-75
2024/03/12 01:07:41;;;;;;;26.10;16.20;;;;;;;-0.92;67.38;101114.79;87385;267;25121;-74
2024/03/12 01:09:44;;;;;;;26.50;17.80;;;;;;;-0.93;67.28;101113.83;87142;271;136410;-73
2024/03/12 01:11:46;;;;;;;22.80;14.80;;;;;;;-0.94;67.60;101111.59;87454;274;25079;-72
2024/03/12 01:13:50;;;;;;;26.00;16.50;;;;;;;-0.94;67.45;101111.42;87248;266;136517;-75
2024/03/12 01:15:53;;;;;;;26.10;16.20;;;;;;;-0.91;67.38;101114.89;87543;274;25303;-75
2024/03/12 01:17:57;;;;;;;29.10;16.10;;;;;;;-0.90;67.53;101110.81;87263;266;135591;-72
2024/03/12 01:19:59;;;;;;;22.70;15.80;;;;;;;-0.89;67.56;101110.42;87243;278;24122;-75
2024/03/12 01:22:04;;;;;;;29.40;16.80;;;;;;;-0.90;67.66;101109.96;87112;271;135665;-74
2024/03/12 01:24:07;;;;;;;27.90;17.10;;;;;;;-0.90;67.62;101110.79;87099;268;136797;-73
2024/03/12 01:26:09;;;;;;;29.40;17.20;;;;;;;-0.91;67.65;101112.63;87209;265;22545;-75
2024/03/12 01:28:12;;;;;;;36.30;18.30;;;;;;;-0.92;67.73;101109.36;87058;269;136095;-75
2024/03/12 01:30:16;;;;;;;31.90;18.20;;;;;;;-0.91;67.87;101109.52;87357;267;23955;-74
2024/03/12 01:32:20;;;;;;;30.50;19.10;;;;;;;-0.92;68.00;101108.52;87209;268;136250;-75
2024/03/12 01:34:24;;;;;;;28.50;18.60;;;;;;;-0.93;68.01;101107.67;87390;267;22671;-75
2024/03/12 01:36:34;;;;;;;35.50;19.80;;;;;;;-0.93;68.02;101105.73;87419;271;136148;-75
2024/03/12 01:38:36;;;;;;;32.50;20.00;;;;;;;-0.92;68.11;101107.61;87368;271;22563;-76
2024/03/12 01:40:39;;;;;;;33.30;18.10;;;;;;;-0.92;68.30;101104.85;87051;279;136156;-73
2024/03/12 01:42:41;;;;;;;35.20;18.80;;;;;;;-0.93;68.39;101102.14;87083;278;22570;-75
2024/03/12 01:44:44;;;;;;;31.70;19.70;;;;;;;-0.95;68.68;101100.10;87242;267;136203;-75
2024/03/12 01:46:46;;;;;;;36.30;20.60;;;;;;;-0.93;68.60;101100.34;87351;267;22589;-75
2024/03/12 01:48:48;;;;;;;36.50;20.90;;;;;;;-0.90;68.61;101098.11;87048;279;135974;-73
2024/03/12 01:50:51;;;;;;;32.30;18.70;;;;;;;-0.88;68.68;101101.27;87355;272;22775;-73
2024/03/12 01:53:06;;;;;;;33.90;18.70;;;;;;;-0.88;68.59;101098.64;87209;270;136077;-75
2024/03/12 01:55:11;;;;;;;29.60;19.60;;;;;;;-0.88;68.67;101096.74;87418;275;22551;-75
2024/03/12 01:57:13;;;;;;;30.90;19.00;;;;;;;-0.87;68.71;101097.05;86994;272;135778;-74
2024/03/12 01:59:16;;;;;;;35.20;20.40;;;;;;;-0.86;68.76;101091.56;87405;267;25189;-72
2024/03/12 02:01:21;;;;;;;36.10;19.40;;;;;;;-0.85;68.99;101094.09;87268;271;136270;-73
2024/03/12 02:03:23;;;;;;;27.20;16.70;;;;;;;-0.84;69.04;101095.78;87404;271;25108;-73
2024/03/12 02:05:28;;;;;;;27.20;16.70;;;;;;;-0.84;69.11;101089.69;87319;278;135951;-74
2024/03/12 02:07:30;;;;;;;30.50;18.40;;;;;;;-0.84;69.12;101090.02;87307;261;22549;-74
2024/03/12 02:09:32;;;;;;;30.40;15.80;;;;;;;-0.82;69.05;101084.86;87205;273;136020;-73
2024/03/12 02:11:35;;;;;;;32.20;18.20;;;;;;;-0.81;69.26;101083.54;87319;270;25134;-75
2024/03/12 02:13:38;;;;;;;26.00;16.20;;;;;;;-0.79;69.05;101080.84;87127;271;136030;-73
2024/03/12 02:15:41;;;;;;;27.70;17.40;;;;;;;-0.79;69.09;101085.54;87369;266;22563;-73
2024/03/12 02:17:44;;;;;;;30.80;17.50;;;;;;;-0.80;69.09;101080.87;87320;273;136350;-76
2024/03/12 02:19:46;;;;;;;23.70;14.30;;;;;;;-0.82;68.93;101080.11;87435;269;22568;-73
2024/03/12 02:21:48;;;;;;;34.00;18.30;;;;;;;-0.84;69.24;101083.36;87263;267;137938;-75
2024/03/12 02:23:50;;;;;;;33.10;15.40;;;;;;;-0.86;69.25;101080.20;87301;270;23998;-72
2024/03/12 02:25:52;;;;;;;27.30;15.00;;;;;;;-0.87;69.44;101083.05;87203;270;136020;-73
2024/03/12 02:27:53;;;;;;;22.30;15.70;;;;;;;-0.88;69.46;101081.20;87334;269;22558;-74
2024/03/12 02:29:56;;;;;;;23.70;14.10;;;;;;;-0.89;69.46;101077.94;87164;268;136060;-74
2024/03/12 02:31:58;;;;;;;26.60;15.50;;;;;;;-0.88;69.34;101079.98;87479;270;23997;-73
2024/03/12 02:34:00;;;;;;;26.30;14.80;;;;;;;-0.88;69.50;101082.56;87248;273;135736;-73
2024/03/12 02:36:06;;;;;;;23.70;15.20;;;;;;;-0.87;69.58;101078.00;87263;273;136412;-72
2024/03/12 02:38:08;;;;;;;23.20;14.80;;;;;;;-0.87;69.43;101076.21;87469;278;24122;-73
2024/03/12 02:40:12;;;;;;;28.80;15.90;;;;;;;-0.87;69.46;101074.47;87193;270;135726;-72
2024/03/12 02:42:16;;;;;;;29.20;16.50;;;;;;;-0.84;69.23;101072.05;87234;270;23338;-73
2024/03/12 02:44:21;;;;;;;23.90;15.00;;;;;;;-0.82;69.37;101069.80;87390;271;136341;-74
2024/03/12 02:46:24;;;;;;;28.20;16.60;;;;;;;-0.80;69.23;101063.73;87597;278;23738;-75
2024/03/12 02:48:25;;;;;;;31.50;16.50;;;;;;;-0.76;69.26;101067.04;87529;278;136372;-75
2024/03/12 02:50:29;;;;;;;25.20;16.30;;;;;;;-0.75;69.28;101067.47;88433;268;22661;-74
2024/03/12 02:52:32;;;;;;;28.50;15.50;;;;;;;-0.74;69.29;101065.63;87914;271;135734;-73
2024/03/12 02:54:33;;;;;;;22.80;15.40;;;;;;;-0.73;69.26;101065.75;87510;271;24077;-74
2024/03/12 02:56:36;;;;;;;30.10;15.50;;;;;;;-0.73;69.25;101062.60;87342;278;135921;-76
2024/03/12 02:58:38;;;;;;;29.50;16.30;;;;;;;-0.74;69.36;101062.19;87518;279;22559;-75
2024/03/12 03:00:40;;;;;;;27.30;15.50;;;;;;;-0.76;69.40;101058.09;88821;270;136226;-69
2024/03/12 03:02:45;;;;;;;27.90;15.40;;;;;;;-0.75;69.41;101059.80;89999;266;22550;-73
2024/03/12 03:04:46;;;;;;;29.90;16.40;;;;;;;-0.72;69.35;101061.84;89966;269;136951;-74
2024/03/12 03:06:52;;;;;;;28.10;16.40;;;;;;;-0.70;69.23;101061.75;90013;266;22566;-72
2024/03/12 03:08:55;;;;;;;25.70;14.90;;;;;;;-0.69;68.97;101062.86;89240;274;136569;-73
2024/03/12 03:10:57;;;;;;;25.80;15.70;;;;;;;-0.68;69.03;101060.37;88821;274;22523;-73
2024/03/12 03:12:59;;;;;;;26.10;16.70;;;;;;;-0.67;69.17;101058.05;88306;266;136725;-74
2024/03/12 03:15:01;;;;;;;30.40;16.20;;;;;;;-0.67;69.28;101059.23;87988;271;22568;-73
2024/03/12 03:17:07;;;;;;;29.30;15.70;;;;;;;-0.66;69.19;101056.23;87539;271;136356;-73
2024/03/12 03:19:11;;;;;;;31.80;17.90;;;;;;;-0.65;69.31;101054.95;87428;271;22847;-75
2024/03/12 03:21:14;;;;;;;30.00;17.70;;;;;;;-0.67;69.26;101051.20;87219;270;136227;-74
2024/03/12 03:23:15;;;;;;;34.00;17.50;;;;;;;-0.69;69.59;101050.48;87390;269;24143;-74
2024/03/12 03:25:17;;;;;;;29.50;15.90;;;;;;;-0.71;69.45;101055.16;87243;274;136788;-73
2024/03/12 03:27:19;;;;;;;25.20;16.90;;;;;;;-0.73;69.45;101054.96;87387;278;25182;-75
2024/03/12 03:29:22;;;;;;;26.40;16.70;;;;;;;-0.72;69.43;101053.83;87179;269;135975;-73
2024/03/12 03:31:25;;;;;;;27.30;16.20;;;;;;;-0.72;69.62;101053.81;87307;270;25123;-73
2024/03/12 03:33:27;;;;;;;28.10;17.30;;;;;;;-0.72;69.49;101047.90;87224;270;137677;-75
2024/03/12 03:35:29;;;;;;;22.10;14.50;;;;;;;-0.74;69.68;101049.59;87268;262;22643;-73
2024/03/12 03:37:35;;;;;;;31.60;15.90;;;;;;;-0.74;69.73;101047.86;87250;277;136374;-75
2024/03/12 03:39:37;;;;;;;32.10;16.30;;;;;;;-0.74;69.83;101046.63;87488;270;24801;-74
2024/03/12 03:41:41;;;;;;;27.60;15.40;;;;;;;-0.73;69.93;101043.27;87095;275;136425;-74
2024/03/12 03:43:44;;;;;;;23.90;15.20;;;;;;;-0.73;70.14;101043.41;87177;271;22654;-73
2024/03/12 03:45:46;;;;;;;28.10;17.60;;;;;;;-0.76;69.99;101045.35;87279;278;136488;-77
2024/03/12 03:47:48;;;;;;;28.70;14.80;;;;;;;-0.76;70.11;101045.89;87465;271;22571;-73
2024/03/12 03:49:52;;;;;;;25.80;15.10;;;;;;;-0.75;70.31;101046.15;87252;265;136592;-77
2024/03/12 03:51:54;;;;;;;26.60;17.60;;;;;;;-0.75;70.22;101042.69;87343;266;25549;-75
2024/03/12 03:54:00;;;;;;;34.00;16.70;;;;;;;-0.75;70.32;101046.02;87255;270;137220;-76
2024/03/12 03:56:03;;;;;;;29.40;17.10;;;;;;;-0.75;70.62;101041.67;87455;269;22568;-75
2024/03/12 03:58:06;;;;;;;21.70;14.90;;;;;;;-0.76;70.66;101042.55;87290;273;26068;-76
2024/03/12 04:00:14;;;;;;;25.40;14.80;;;;;;;-0.75;70.82;101040.77;87334;270;136652;-77
2024/03/12 04:02:18;;;;;;;26.60;15.10;;;;;;;-0.72;70.85;101038.29;87077;278;22559;-77
2024/03/12 04:04:22;;;;;;;26.40;15.50;;;;;;;-0.69;70.69;101039.12;87311;273;137301;-76
2024/03/12 04:06:24;;;;;;;25.80;16.50;;;;;;;-0.66;70.54;101037.56;87426;268;23883;-78
2024/03/12 04:08:26;;;;;;;24.80;16.00;;;;;;;-0.65;70.48;101031.71;87213;274;136962;-76
2024/03/12 04:10:30;;;;;;;21.30;13.40;;;;;;;-0.65;70.66;101029.81;87341;267;24184;-76
2024/03/12 04:12:32;;;;;;;26.40;15.60;;;;;;;-0.64;70.43;101030.42;87401;270;136281;-76
2024/03/12 04:14:33;;;;;;;27.20;15.70;;;;;;;-0.60;70.48;101032.44;87370;271;22572;-75
2024/03/12 04:16:35;;;;;;;31.30;17.10;;;;;;;-0.55;70.47;101026.41;87306;275;136595;-76
2024/03/12 04:18:38;;;;;;;31.00;16.40;;;;;;;-0.52;70.35;101026.73;87319;274;27446;-74
2024/03/12 04:20:40;;;;;;;28.80;16.60;;;;;;;-0.48;70.23;101022.98;87330;265;136421;-75
2024/03/12 04:22:43;;;;;;;27.80;14.90;;;;;;;-0.46;70.19;101025.11;87326;266;22644;-76
2024/03/12 04:24:46;;;;;;;23.10;15.50;;;;;;;-0.43;70.19;101024.55;87181;279;136422;-76
2024/03/12 04:26:48;;;;;;;33.40;17.70;;;;;;;-0.40;69.99;101025.61;87372;269;23901;-76
2024/03/12 04:28:50;;;;;;;26.20;16.00;;;;;;;-0.38;70.00;101026.15;87239;273;136260;-75
2024/03/12 04:30:54;;;;;;;32.80;17.90;;;;;;;-0.35;70.06;101020.70;87339;269;26182;-76
2024/03/12 04:32:56;;;;;;;32.20;18.50;;;;;;;-0.33;70.04;101021.79;87146;269;136899;-74
2024/03/12 04:34:59;;;;;;;31.70;18.70;;;;;;;-0.31;70.00;101021.16;87254;266;22571;-75
2024/03/12 04:37:00;;;;;;;26.60;17.60;;;;;;;-0.31;70.09;101022.05;87208;266;136182;-73
2024/03/12 04:41:26;;;;;;;28.50;18.40;;;;;;;-0.34;70.11;101020.48;87258;269;136452;-75
2024/03/12 04:43:28;;;;;;;32.70;19.90;;;;;;;-0.36;70.35;101017.42;87326;274;24231;-72
2024/03/12 04:45:29;;;;;;;27.70;18.70;;;;;;;-0.35;70.45;101016.16;87202;269;136208;-72
2024/03/12 04:47:33;;;;;;;30.70;18.40;;;;;;;-0.30;70.42;101014.83;87437;277;26117;-74
2024/03/12 04:49:37;;;;;;;29.40;18.00;;;;;;;-0.30;70.40;101017.41;87313;273;137825;-73
2024/03/12 04:51:40;;;;;;;35.30;20.80;;;;;;;-0.28;70.45;101016.77;87328;278;25201;-75
2024/03/12 04:53:42;;;;;;;34.90;20.90;;;;;;;-0.26;70.52;101017.52;87113;278;138876;-74
2024/03/12 04:55:45;;;;;;;33.30;21.30;;;;;;;-0.23;70.51;101020.30;87389;267;22566;-73
2024/03/12 04:57:48;;;;;;;27.50;19.60;;;;;;;-0.22;70.63;101021.92;87347;278;136688;-76
2024/03/12 04:59:50;;;;;;;29.90;19.40;;;;;;;-0.21;70.81;101018.69;87362;266;25153;-78
2024/03/12 05:01:52;;;;;;;31.40;19.30;;;;;;;-0.21;70.69;101020.67;87183;274;135858;-75
2024/03/12 05:03:55;;;;;;;30.80;18.60;;;;;;;-0.23;70.90;101020.77;87277;273;25182;-77
2024/03/12 05:06:03;;;;;;;32.80;20.00;;;;;;;-0.23;70.98;101022.57;87254;275;136055;-78
2024/03/12 05:08:05;;;;;;;37.10;22.80;;;;;;;-0.21;71.17;101020.85;87128;267;136800;-74
2024/03/12 05:10:07;;;;;;;39.70;21.80;;;;;;;-0.18;71.22;101023.83;87175;271;22560;-73
2024/03/12 05:12:09;;;;;;;32.70;20.20;;;;;;;-0.14;71.50;101024.08;88507;271;137871;-72
2024/03/12 05:14:11;;;;;;;37.20;21.90;;;;;;;-0.09;71.25;101024.39;87237;278;25233;-73
2024/03/12 05:16:13;;;;;;;37.10;22.40;;;;;;;-0.06;71.32;101025.09;87222;278;136722;-73
2024/03/12 05:18:15;;;;;;;33.10;20.90;;;;;;;-0.07;71.45;101026.57;87264;271;22678;-74
2024/03/12 05:20:23;;;;;;;46.50;23.90;;;;;;;-0.08;71.34;101030.64;87165;271;136504;-73
2024/03/12 05:22:26;;;;;;;33.40;21.70;;;;;;;-0.05;71.35;101031.30;88582;269;24769;-73
2024/03/12 05:24:31;;;;;;;32.30;19.30;;;;;;;0.00;71.34;101032.02;87180;267;136407;-73
2024/03/12 05:26:36;;;;;;;33.90;19.60;;;;;;;0.02;71.22;101030.54;87304;278;22765;-75
2024/03/12 05:28:38;;;;;;;33.70;20.40;;;;;;;0.04;71.17;101033.55;87327;269;136336;-73
2024/03/12 05:30:40;;;;;;;43.70;22.60;;;;;;;0.06;71.36;101036.68;87368;271;25111;-73
2024/03/12 05:32:47;;;;;;;36.50;20.70;;;;;;;0.09;71.36;101035.59;87295;269;136328;-73
2024/03/12 05:34:58;;;;;;;29.40;19.80;;;;;;;0.12;71.34;101034.88;87330;277;22558;-72
2024/03/12 05:37:04;;;;;;;32.20;20.50;;;;;;;0.12;71.28;101037.67;87276;269;136152;-73
2024/03/12 05:39:18;;;;;;;34.00;19.70;;;;;;;0.15;71.17;101037.82;87381;269;23998;-71
2024/03/12 05:41:25;;;;;;;35.00;22.30;;;;;;;0.22;71.23;101043.17;87242;274;136280;-75
2024/03/12 05:48:13;;;;;;;36.40;22.30;;;;;;;0.32;71.00;101051.71;87229;273;136318;-70
2024/03/12 05:50:16;;;;;;;34.30;21.90;;;;;;;0.34;70.89;101047.05;87401;278;24011;-71
2024/03/12 05:52:19;;;;;;;42.20;21.30;;;;;;;0.37;70.89;101041.23;87483;270;136391;-71
2024/03/12 05:54:20;;;;;;;40.60;22.50;;;;;;;0.38;70.88;101043.76;87310;273;25118;-73
2024/03/12 05:56:24;;;;;;;40.50;21.20;;;;;;;0.38;70.94;101044.52;87204;274;136327;-74
2024/03/12 05:58:25;;;;;;;38.20;21.70;;;;;;;0.37;70.80;101045.63;87243;272;24007;-73
2024/03/12 06:00:30;;;;;;;39.10;21.80;;;;;;;0.36;70.82;101046.20;87061;274;135473;-75
2024/03/12 06:02:33;;;;;;;39.10;21.50;;;;;;;0.37;71.23;101040.17;87286;270;23798;-76
2024/03/12 06:04:35;;;;;;;36.60;21.70;;;;;;;0.36;71.34;101038.14;87052;269;136435;-74
2024/03/12 06:06:37;;;;;;;41.00;21.60;;;;;;;0.36;71.63;101039.38;87063;270;24146;-73
2024/03/12 06:08:39;;;;;;;33.60;19.60;;;;;;;0.37;71.60;101039.98;87092;270;136379;-74
2024/03/12 06:10:41;;;;;;;33.30;21.20;;;;;;;0.39;71.72;101034.80;87053;280;24254;-76
2024/03/12 06:12:49;;;;;;;31.10;21.10;;;;;;;0.40;71.72;101034.57;86987;268;135974;-75
2024/03/12 06:14:51;;;;;;;33.20;22.20;;;;;;;0.43;71.61;101034.36;87241;274;25322;-75
2024/03/12 06:16:53;;;;;;;30.50;19.40;;;;;;;0.46;71.65;101043.56;87138;270;136423;-74
2024/03/12 06:18:56;;;;;;;40.30;22.60;;;;;;;0.49;71.65;101037.95;87006;271;25188;-75
2024/03/12 06:20:58;;;;;;;37.50;22.10;;;;;;;0.52;71.54;101038.80;87166;271;136511;-75
2024/03/12 06:23:00;;;;;;;36.00;22.10;;;;;;;0.54;71.58;101039.68;87214;263;22509;-74
2024/03/12 06:25:02;;;;;;;36.20;21.00;;;;;;;0.58;71.67;101035.60;87114;274;137088;-76
2024/03/12 06:27:05;;;;;;;40.50;23.40;;;;;;;0.63;71.65;101040.51;87154;272;22568;-72
2024/03/12 06:29:07;;;;;;;39.90;22.40;;;;;;;0.69;71.24;101043.27;87268;269;136224;-73
2024/03/12 06:31:09;;;;;;;40.00;24.00;;;;;;;0.71;71.06;101036.48;87181;270;24199;-76
2024/03/12 06:33:12;;;;;;;36.40;22.50;;;;;;;0.72;71.04;101035.53;87081;269;136386;-74
2024/03/12 06:35:14;;;;;;;39.40;23.20;;;;;;;0.70;71.13;101032.85;87334;266;25083;-68
2024/03/12 06:37:18;;;;;;;50.40;23.80;;;;;;;0.69;71.18;101035.91;87135;270;135864;-75
2024/03/12 06:39:20;;;;;;;43.70;21.70;;;;;;;0.70;71.08;101034.95;87206;277;22559;-76
2024/03/12 06:41:24;;;;;;;29.50;19.00;;;;;;;0.74;71.22;101030.46;87115;269;136177;-78
2024/03/12 06:43:26;;;;;;;33.40;21.10;;;;;;;0.76;71.16;101029.08;87254;273;25079;-77
2024/03/12 06:45:28;;;;;;;37.30;22.60;;;;;;;0.78;71.05;101026.86;87142;265;136558;-76
2024/03/12 06:47:36;;;;;;;38.00;22.70;;;;;;;0.80;70.99;101025.36;87230;278;25207;-72
2024/03/12 06:49:44;;;;;;;42.70;22.60;;;;;;;0.81;71.26;101023.31;87162;269;136429;-78
2024/03/12 06:51:47;;;;;;;39.80;23.40;;;;;;;0.86;71.27;101023.14;87646;274;22631;-75
2024/03/12 06:53:49;;;;;;;30.00;20.70;;;;;;;0.92;70.75;101027.82;87230;273;136585;-80
2024/03/12 06:55:51;;;;;;;38.00;22.80;;;;;;;0.93;70.73;101030.50;87616;262;24969;-79
2024/03/12 06:57:59;;;;;;;33.30;21.10;;;;;;;0.94;70.47;101026.94;87102;266;135931;-75
2024/03/12 07:00:09;;;;;;;39.90;22.00;;;;;;;0.93;70.63;101024.71;87385;277;25452;-77
2024/03/12 07:02:12;;;;;;;36.10;23.30;;;;;;;1.00;70.56;101033.37;87239;268;25213;-73
2024/03/12 07:04:13;;;;;;;35.10;20.40;;;;;;;1.06;70.51;101032.45;87942;269;136571;-77
2024/03/12 07:06:16;;;;;;;37.60;22.70;;;;;;;1.10;70.34;101030.54;87365;274;25940;-74
2024/03/12 07:08:21;;;;;;;29.40;20.30;;;;;;;1.13;70.16;101026.98;87160;269;136592;-78
2024/03/12 07:10:25;;;;;;;36.70;21.60;;;;;;;1.15;70.10;101027.19;87691;266;25079;-76
2024/03/12 07:12:27;;;;;;;32.40;20.30;;;;;;;1.20;70.34;101029.13;87396;271;135620;-74
2024/03/12 07:14:32;;;;;;;30.30;21.10;;;;;;;1.25;70.13;101031.02;87295;274;22577;-76
2024/03/12 07:16:34;;;;;;;;;;;;;;;1.27;69.78;101037.19;87236;270;135977;-75
2024/03/12 07:18:36;;;;;;;35.80;21.40;;;;;;;1.26;70.02;101035.73;87250;269;24158;-76
2024/03/12 07:20:37;;;;;;;31.10;20.20;;;;;;;1.25;69.95;101036.96;87234;269;136585;-75
2024/03/12 07:22:42;;;;;;;28.90;19.90;;;;;;;1.27;69.96;101031.57;87324;268;25080;-76
2024/03/12 07:24:47;;;;;;;35.00;22.10;;;;;;;1.29;70.43;101032.33;87273;269;136200;-75
2024/03/12 07:26:49;;;;;;;30.40;20.30;;;;;;;1.29;70.56;101029.37;87410;274;22707;-77
2024/03/12 07:28:51;;;;;;;32.80;20.20;;;;;;;1.27;70.66;101033.67;87230;277;136371;-79
2024/03/12 07:30:54;;;;;;;37.10;19.20;;;;;;;1.27;70.72;101034.58;87577;269;24055;-75
2024/03/12 07:32:57;;;;;;;33.60;20.60;;;;;;;1.26;70.93;101040.08;87513;270;136785;-75
2024/03/12 07:35:00;;;;;;;36.90;21.60;;;;;;;1.28;71.04;101045.52;87332;273;22691;-76
2024/03/12 07:37:02;;;;;;;41.00;23.80;;;;;;;1.24;71.65;101042.48;87249;276;136424;-74
2024/03/12 07:39:24;;;;;;;40.90;21.60;;;;;;;1.22;71.78;101041.45;87301;278;22571;-75
2024/03/12 07:41:26;;;;;;;40.40;22.90;;;;;;;1.23;71.86;101039.98;87140;270;136423;-76
2024/03/12 07:43:29;;;;;;;51.10;25.10;;;;;;;1.26;72.23;101037.26;87305;276;25231;-76
2024/03/12 07:45:32;;;;;;;46.50;24.30;;;;;;;1.31;72.17;101040.42;87482;273;136480;-78
2024/03/12 07:47:34;;;;;;;38.50;24.10;;;;;;;1.38;72.11;101038.93;87367;268;25108;-74
2024/03/12 07:49:36;;;;;;;36.30;22.00;;;;;;;1.45;71.93;101041.19;87552;273;135963;-73
2024/03/12 07:51:39;;;;;;;36.50;23.50;;;;;;;1.53;71.72;101038.15;87739;267;24119;-74
2024/03/12 07:53:40;;;;;;;42.80;24.70;;;;;;;1.59;71.47;101036.44;87472;264;136363;-73
2024/03/12 07:55:43;;;;;;;51.30;25.70;;;;;;;1.62;71.64;101032.92;87953;270;22567;-79
2024/03/12 07:57:45;;;;;;;40.80;25.60;;;;;;;1.62;71.62;101033.98;87611;270;136016;-79
2024/03/12 07:59:47;;;;;;;39.80;25.40;;;;;;;1.63;71.65;101031.96;87482;270;22630;-70
2024/03/12 08:01:52;;;;;;;43.40;26.60;;;;;;;1.60;72.01;101026.02;87236;273;136258;-69
2024/03/12 08:03:55;;;;;;;44.60;25.70;;;;;;;1.60;72.17;101032.16;87467;270;22556;-64
2024/03/12 08:05:59;;;;;;;44.00;25.60;;;;;;;1.64;71.99;101034.52;87313;264;137480;-66
2024/03/12 08:08:01;;;;;;;42.10;24.90;;;;;;;1.67;72.04;101031.50;87304;270;23745;-63
2024/03/12 08:10:05;;;;;;;34.90;24.60;;;;;;;1.67;72.07;101038.13;87295;266;22568;-63
2024/03/12 08:12:07;;;;;;;41.70;24.90;;;;;;;1.66;72.02;101033.52;87201;270;136080;-62
2024/03/12 08:14:09;;;;;;;48.30;23.70;;;;;;;1.65;72.18;101033.40;87459;268;25220;-64
2024/03/12 08:16:12;;;;;;;41.10;23.60;;;;;;;1.64;72.37;101031.20;87211;266;136556;-65
2024/03/12 08:18:14;;;;;;;38.00;23.90;;;;;;;1.64;72.49;101036.44;87267;268;25114;-66
2024/03/12 08:20:22;;;;;;;46.10;25.20;;;;;;;1.64;72.85;101037.86;87336;275;136504;-67
2024/03/12 08:22:24;;;;;;;48.10;26.30;;;;;;;1.63;72.94;101039.12;86688;270;804065;-66
2024/03/12 08:24:29;;;;;;;38.10;25.50;;;;;;;1.64;73.08;101041.49;87382;274;136610;-64
2024/03/12 08:26:31;;;;;;;36.10;24.90;;;;;;;1.67;73.15;101039.36;87305;280;25086;-69
2024/03/12 08:28:33;;;;;;;40.60;24.70;;;;;;;1.70;73.34;101039.10;87268;266;136949;-67
2024/03/12 08:30:36;;;;;;;44.00;26.00;;;;;;;1.72;73.21;101039.69;87528;273;25333;-74
2024/03/12 08:32:41;;;;;;;38.80;25.50;;;;;;;1.72;73.51;101039.66;87496;273;137447;-82
2024/03/12 08:34:44;;;;;;;40.00;26.70;;;;;;;1.76;73.66;101036.08;87607;266;23023;-75
2024/03/12 08:36:47;;;;;;;39.50;26.00;;;;;;;1.76;73.93;101024.86;87438;272;137786;-80
2024/03/12 08:38:49;;;;;;;49.40;27.80;;;;;;;1.77;74.05;101033.71;87475;284;23415;-74
2024/03/12 08:40:52;;;;;;;51.30;28.60;;;;;;;1.79;74.63;101030.82;87677;271;136065;-78
2024/03/12 08:42:54;;;;;;;41.10;25.40;;;;;;;1.78;75.06;101030.17;88163;266;22564;-78
2024/03/12 08:45:08;;;;;;;48.90;27.10;;;;;;;1.77;75.14;101028.66;87755;273;136164;-80
2024/03/12 08:47:11;;;;;;;44.10;27.50;;;;;;;1.79;75.68;101027.62;87694;269;22701;-80
2024/03/12 08:49:13;;;;;;;38.50;25.30;;;;;;;1.83;75.79;101023.09;88067;274;136043;-81
2024/03/12 08:51:14;;;;;;;40.10;26.90;;;;;;;1.88;75.71;101028.19;87734;270;22535;-74
2024/03/12 08:53:16;;;;;;;65.50;31.30;;;;;;;1.93;75.44;101032.37;87505;267;136352;-76
2024/03/12 08:55:18;;;;;;;57.20;31.80;;;;;;;1.96;75.52;101032.64;87700;270;22596;-77
2024/03/12 08:57:20;;;;;;;60.70;31.50;;;;;;;1.99;75.53;101030.38;87622;269;136256;-80
2024/03/12 08:59:22;;;;;;;46.80;28.40;;;;;;;2.05;75.62;101031.27;87788;273;22559;-78
2024/03/12 09:01:24;;;;;;;47.00;28.50;;;;;;;2.13;75.45;101036.80;87582;268;136733;-79
2024/03/12 09:03:26;;;;;;;45.40;26.90;;;;;;;2.14;75.34;101029.87;87739;267;22591;-75
2024/03/12 09:05:28;;;;;;;45.00;28.00;;;;;;;2.12;75.55;101032.30;87549;272;136716;-76
2024/03/12 09:07:30;;;;;;;48.00;29.10;;;;;;;2.07;76.03;101031.65;87559;277;22840;-74
2024/03/12 09:09:32;;;;;;;41.90;27.80;;;;;;;2.05;76.31;101032.71;87275;264;136597;-73
2024/03/12 09:11:33;;;;;;;51.20;29.20;;;;;;;2.01;76.55;101020.73;87272;270;25095;-74
2024/03/12 09:13:35;;;;;;;50.00;27.70;;;;;;;2.01;76.76;101029.15;87424;278;136115;-75
2024/03/12 09:15:37;;;;;;;59.30;29.10;;;;;;;1.98;76.89;101029.40;87636;270;25091;-75
2024/03/12 09:17:39;;;;;;;46.70;27.80;;;;;;;1.94;77.24;101024.19;87535;271;138105;-74
2024/03/12 09:19:42;;;;;;;51.00;28.70;;;;;;;1.92;77.75;101024.03;87683;278;24023;-76
2024/03/12 09:21:44;;;;;;;59.80;30.90;;;;;;;1.91;77.91;101017.45;87777;269;137491;-73
2024/03/12 09:23:46;;;;;;;46.70;27.00;;;;;;;1.94;77.94;101024.59;87963;270;24093;-75
2024/03/12 09:26:03;;;;;;;;;;;;;;;1.99;78.04;101031.52;87784;274;135885;-74
2024/03/12 09:28:05;;;;;;;66.30;30.80;;;;;;;2.05;77.98;101028.86;87563;279;122478;-74
2024/03/12 09:30:10;;;;;;;65.80;29.60;;;;;;;2.09;77.69;101036.91;87702;271;23990;-76
2024/03/12 09:32:13;;;;;;;56.80;31.30;;;;;;;2.18;77.39;101030.12;89477;266;136152;-77
2024/03/12 09:34:16;;;;;;;67.50;32.80;;;;;;;2.22;77.17;101030.36;88968;266;22580;-77